sensor_id;sensor_type;location;lat;lon;timestamp;P1;durP1;ratioP1;P2;durP2;ratioP2
13252;SDS011;6693;54.370;10.132;2023-05-07T00:00:03;16.80;;;7.20;;
13252;SDS011;6693;54.370;10.132;2023-05-07T00:01:08;18.17;;;6.10;;
13252;SDS011;6693;54.370;10.132;2023-05-07T00:02:11;15.00;;;6.38;;
13252;SDS011;6693;54.370;10.132;2023-05-07T00:03:12;14.60;;;7.28;;
13252;SDS011;6693;54.370;10.132;2023-05-07T00:04:15;15.20;;;7.07;;
13252;SDS011;6693;54.370;10.132;2023-05-07T00:05:18;17.58;;;7.40;;
13252;SDS011;6693;54.370;10.132;2023-05-07T00:06:22;18.42;;;6.95;;
13252;SDS011;6693;54.370;10.132;2023-05-07T00:07:22;15.77;;;6.63;;
13252;SDS011;6693;54.370;10.132;2023-05-07T00:08:26;16.88;;;6.97;;
13252;SDS011;6693;54.370;10.132;2023-05-07T00:09:26;14.13;;;5.60;;
13252;SDS011;6693;54.370;10.132;2023-05-07T00:10:29;19.13;;;7.90;;
13252;SDS011;6693;54.370;10.132;2023-05-07T00:11:30;16.52;;;7.20;;
13252;SDS011;6693;54.370;10.132;2023-05-07T00:12:33;16.73;;;7.05;;
13252;SDS011;6693;54.370;10.132;2023-05-07T00:13:34;17.85;;;8.25;;
13252;SDS011;6693;54.370;10.132;2023-05-07T00:14:37;17.75;;;8.27;;
13252;SDS011;6693;54.370;10.132;2023-05-07T00:15:38;18.67;;;6.80;;
13252;SDS011;6693;54.370;10.132;2023-05-07T00:16:41;16.80;;;6.80;;
13252;SDS011;6693;54.370;10.132;2023-05-07T00:17:42;17.50;;;7.18;;
13252;SDS011;6693;54.370;10.132;2023-05-07T00:18:45;17.95;;;6.45;;
13252;SDS011;6693;54.370;10.132;2023-05-07T00:19:46;18.85;;;6.97;;
13252;SDS011;6693;54.370;10.132;2023-05-07T00:20:52;19.23;;;8.27;;
13252;SDS011;6693;54.370;10.132;2023-05-07T00:21:52;16.13;;;7.57;;
13252;SDS011;6693;54.370;10.132;2023-05-07T00:22:56;19.75;;;7.10;;
13252;SDS011;6693;54.370;10.132;2023-05-07T00:23:57;18.35;;;8.00;;
13252;SDS011;6693;54.370;10.132;2023-05-07T00:25:00;18.42;;;7.60;;
13252;SDS011;6693;54.370;10.132;2023-05-07T00:26:01;15.30;;;6.45;;
13252;SDS011;6693;54.370;10.132;2023-05-07T00:27:04;17.13;;;6.93;;
13252;SDS011;6693;54.370;10.132;2023-05-07T00:28:05;16.95;;;7.85;;
13252;SDS011;6693;54.370;10.132;2023-05-07T00:29:08;19.70;;;8.55;;
13252;SDS011;6693;54.370;10.132;2023-05-07T00:30:09;11.52;;;5.10;;
13252;SDS011;6693;54.370;10.132;2023-05-07T00:31:13;15.73;;;7.05;;
13252;SDS011;6693;54.370;10.132;2023-05-07T00:32:14;17.17;;;6.78;;
13252;SDS011;6693;54.370;10.132;2023-05-07T00:33:17;14.90;;;7.28;;
13252;SDS011;6693;54.370;10.132;2023-05-07T00:34:18;19.70;;;6.55;;
13252;SDS011;6693;54.370;10.132;2023-05-07T00:35:22;18.83;;;7.60;;
13252;SDS011;6693;54.370;10.132;2023-05-07T00:36:26;17.35;;;8.30;;
13252;SDS011;6693;54.370;10.132;2023-05-07T00:37:29;16.08;;;6.53;;
13252;SDS011;6693;54.370;10.132;2023-05-07T00:38:30;17.92;;;7.18;;
13252;SDS011;6693;54.370;10.132;2023-05-07T00:39:33;18.67;;;8.15;;
13252;SDS011;6693;54.370;10.132;2023-05-07T00:40:34;16.27;;;7.30;;
13252;SDS011;6693;54.370;10.132;2023-05-07T00:41:37;15.60;;;7.03;;
13252;SDS011;6693;54.370;10.132;2023-05-07T00:42:37;18.52;;;8.25;;
13252;SDS011;6693;54.370;10.132;2023-05-07T00:43:40;14.73;;;7.40;;
13252;SDS011;6693;54.370;10.132;2023-05-07T00:44:41;17.13;;;7.75;;
13252;SDS011;6693;54.370;10.132;2023-05-07T00:45:44;16.58;;;7.38;;
13252;SDS011;6693;54.370;10.132;2023-05-07T00:46:45;18.13;;;7.07;;
13252;SDS011;6693;54.370;10.132;2023-05-07T00:47:49;18.02;;;7.18;;
13252;SDS011;6693;54.370;10.132;2023-05-07T00:48:57;18.52;;;6.97;;
13252;SDS011;6693;54.370;10.132;2023-05-07T00:50:04;18.17;;;7.90;;
13252;SDS011;6693;54.370;10.132;2023-05-07T00:51:13;20.55;;;8.18;;
13252;SDS011;6693;54.370;10.132;2023-05-07T00:52:19;18.77;;;7.78;;
13252;SDS011;6693;54.370;10.132;2023-05-07T00:53:20;16.13;;;7.28;;
13252;SDS011;6693;54.370;10.132;2023-05-07T00:54:23;19.95;;;7.75;;
13252;SDS011;6693;54.370;10.132;2023-05-07T00:55:24;16.45;;;7.30;;
13252;SDS011;6693;54.370;10.132;2023-05-07T00:56:28;17.30;;;7.50;;
13252;SDS011;6693;54.370;10.132;2023-05-07T00:57:28;15.95;;;8.07;;
13252;SDS011;6693;54.370;10.132;2023-05-07T00:58:32;16.60;;;7.07;;
13252;SDS011;6693;54.370;10.132;2023-05-07T00:59:32;16.08;;;8.10;;
13252;SDS011;6693;54.370;10.132;2023-05-07T01:00:35;14.80;;;7.13;;
13252;SDS011;6693;54.370;10.132;2023-05-07T01:01:36;17.40;;;7.63;;
13252;SDS011;6693;54.370;10.132;2023-05-07T01:02:39;17.45;;;8.07;;
13252;SDS011;6693;54.370;10.132;2023-05-07T01:03:40;17.52;;;7.18;;
13252;SDS011;6693;54.370;10.132;2023-05-07T01:04:43;16.23;;;7.20;;
13252;SDS011;6693;54.370;10.132;2023-05-07T01:05:44;14.27;;;6.85;;
13252;SDS011;6693;54.370;10.132;2023-05-07T01:06:50;15.27;;;7.32;;
13252;SDS011;6693;54.370;10.132;2023-05-07T01:07:55;16.08;;;7.60;;
13252;SDS011;6693;54.370;10.132;2023-05-07T01:08:58;15.23;;;6.78;;
13252;SDS011;6693;54.370;10.132;2023-05-07T01:09:59;14.52;;;6.47;;
13252;SDS011;6693;54.370;10.132;2023-05-07T01:11:03;15.27;;;7.00;;
13252;SDS011;6693;54.370;10.132;2023-05-07T01:12:04;16.00;;;8.40;;
13252;SDS011;6693;54.370;10.132;2023-05-07T01:13:08;15.57;;;7.78;;
13252;SDS011;6693;54.370;10.132;2023-05-07T01:14:11;13.65;;;7.30;;
13252;SDS011;6693;54.370;10.132;2023-05-07T01:15:14;17.75;;;8.48;;
13252;SDS011;6693;54.370;10.132;2023-05-07T01:16:15;18.50;;;8.35;;
13252;SDS011;6693;54.370;10.132;2023-05-07T01:17:18;17.98;;;7.72;;
13252;SDS011;6693;54.370;10.132;2023-05-07T01:18:19;13.80;;;6.40;;
13252;SDS011;6693;54.370;10.132;2023-05-07T01:19:22;17.13;;;9.35;;
13252;SDS011;6693;54.370;10.132;2023-05-07T01:20:23;15.80;;;8.20;;
13252;SDS011;6693;54.370;10.132;2023-05-07T01:21:26;15.88;;;7.35;;
13252;SDS011;6693;54.370;10.132;2023-05-07T01:22:31;12.98;;;6.57;;
13252;SDS011;6693;54.370;10.132;2023-05-07T01:23:36;16.02;;;8.15;;
13252;SDS011;6693;54.370;10.132;2023-05-07T01:24:37;17.15;;;8.40;;
13252;SDS011;6693;54.370;10.132;2023-05-07T01:25:41;15.88;;;7.25;;
13252;SDS011;6693;54.370;10.132;2023-05-07T01:26:41;14.80;;;6.45;;
13252;SDS011;6693;54.370;10.132;2023-05-07T01:27:45;16.20;;;7.88;;
13252;SDS011;6693;54.370;10.132;2023-05-07T01:28:46;16.73;;;7.80;;
13252;SDS011;6693;54.370;10.132;2023-05-07T01:29:50;11.20;;;5.50;;
13252;SDS011;6693;54.370;10.132;2023-05-07T01:30:52;15.57;;;6.50;;
13252;SDS011;6693;54.370;10.132;2023-05-07T01:31:57;16.30;;;7.10;;
13252;SDS011;6693;54.370;10.132;2023-05-07T01:32:59;16.67;;;7.05;;
13252;SDS011;6693;54.370;10.132;2023-05-07T01:34:05;16.85;;;7.60;;
13252;SDS011;6693;54.370;10.132;2023-05-07T01:36:10;12.00;;;6.13;;
13252;SDS011;6693;54.370;10.132;2023-05-07T01:37:12;13.93;;;6.65;;
13252;SDS011;6693;54.370;10.132;2023-05-07T01:38:18;13.38;;;5.90;;
13252;SDS011;6693;54.370;10.132;2023-05-07T01:39:19;13.68;;;6.90;;
13252;SDS011;6693;54.370;10.132;2023-05-07T01:40:22;13.43;;;7.65;;
13252;SDS011;6693;54.370;10.132;2023-05-07T01:41:24;18.02;;;8.38;;
13252;SDS011;6693;54.370;10.132;2023-05-07T01:42:28;13.95;;;7.00;;
13252;SDS011;6693;54.370;10.132;2023-05-07T01:43:29;14.38;;;7.57;;
13252;SDS011;6693;54.370;10.132;2023-05-07T01:44:33;13.88;;;6.95;;
13252;SDS011;6693;54.370;10.132;2023-05-07T01:45:34;12.32;;;7.65;;
13252;SDS011;6693;54.370;10.132;2023-05-07T01:46:37;13.07;;;6.50;;
13252;SDS011;6693;54.370;10.132;2023-05-07T01:47:38;13.50;;;5.95;;
13252;SDS011;6693;54.370;10.132;2023-05-07T01:48:42;17.42;;;8.07;;
13252;SDS011;6693;54.370;10.132;2023-05-07T01:49:46;13.60;;;7.00;;
13252;SDS011;6693;54.370;10.132;2023-05-07T01:50:47;13.13;;;6.53;;
13252;SDS011;6693;54.370;10.132;2023-05-07T01:51:51;15.00;;;7.25;;
13252;SDS011;6693;54.370;10.132;2023-05-07T01:52:51;22.38;;;6.93;;
13252;SDS011;6693;54.370;10.132;2023-05-07T01:53:57;13.55;;;6.43;;
13252;SDS011;6693;54.370;10.132;2023-05-07T01:54:58;15.18;;;7.70;;
13252;SDS011;6693;54.370;10.132;2023-05-07T01:56:01;14.20;;;6.85;;
13252;SDS011;6693;54.370;10.132;2023-05-07T01:57:02;17.63;;;7.80;;
13252;SDS011;6693;54.370;10.132;2023-05-07T01:58:06;14.98;;;9.23;;
13252;SDS011;6693;54.370;10.132;2023-05-07T01:59:06;17.48;;;9.18;;
13252;SDS011;6693;54.370;10.132;2023-05-07T02:00:10;14.00;;;7.10;;
13252;SDS011;6693;54.370;10.132;2023-05-07T02:01:12;19.60;;;9.95;;
13252;SDS011;6693;54.370;10.132;2023-05-07T02:02:15;19.23;;;9.23;;
13252;SDS011;6693;54.370;10.132;2023-05-07T02:03:16;17.67;;;9.00;;
13252;SDS011;6693;54.370;10.132;2023-05-07T02:04:19;12.70;;;6.38;;
13252;SDS011;6693;54.370;10.132;2023-05-07T02:05:20;13.05;;;6.85;;
13252;SDS011;6693;54.370;10.132;2023-05-07T02:06:23;13.00;;;6.13;;
13252;SDS011;6693;54.370;10.132;2023-05-07T02:07:23;12.40;;;6.57;;
13252;SDS011;6693;54.370;10.132;2023-05-07T02:08:27;11.82;;;6.20;;
13252;SDS011;6693;54.370;10.132;2023-05-07T02:09:30;14.43;;;6.88;;
13252;SDS011;6693;54.370;10.132;2023-05-07T02:10:33;12.88;;;6.55;;
13252;SDS011;6693;54.370;10.132;2023-05-07T02:11:34;14.98;;;8.35;;
13252;SDS011;6693;54.370;10.132;2023-05-07T02:12:37;13.80;;;8.45;;
13252;SDS011;6693;54.370;10.132;2023-05-07T02:13:37;12.95;;;6.90;;
13252;SDS011;6693;54.370;10.132;2023-05-07T02:14:41;14.52;;;8.35;;
13252;SDS011;6693;54.370;10.132;2023-05-07T02:15:42;13.77;;;7.03;;
13252;SDS011;6693;54.370;10.132;2023-05-07T02:16:49;11.57;;;5.95;;
13252;SDS011;6693;54.370;10.132;2023-05-07T02:17:58;13.95;;;7.70;;
13252;SDS011;6693;54.370;10.132;2023-05-07T02:19:00;14.43;;;7.60;;
13252;SDS011;6693;54.370;10.132;2023-05-07T02:20:03;11.95;;;6.53;;
13252;SDS011;6693;54.370;10.132;2023-05-07T02:21:04;10.52;;;5.38;;
13252;SDS011;6693;54.370;10.132;2023-05-07T02:22:09;11.80;;;6.13;;
13252;SDS011;6693;54.370;10.132;2023-05-07T02:23:09;10.00;;;4.65;;
13252;SDS011;6693;54.370;10.132;2023-05-07T02:24:12;8.18;;;3.92;;
13252;SDS011;6693;54.370;10.132;2023-05-07T02:25:16;15.02;;;5.57;;
13252;SDS011;6693;54.370;10.132;2023-05-07T02:26:19;12.60;;;5.80;;
13252;SDS011;6693;54.370;10.132;2023-05-07T02:27:20;12.23;;;5.72;;
13252;SDS011;6693;54.370;10.132;2023-05-07T02:28:23;12.98;;;6.20;;
13252;SDS011;6693;54.370;10.132;2023-05-07T02:29:24;14.15;;;6.60;;
13252;SDS011;6693;54.370;10.132;2023-05-07T02:30:27;11.63;;;6.03;;
13252;SDS011;6693;54.370;10.132;2023-05-07T02:31:28;15.90;;;8.82;;
13252;SDS011;6693;54.370;10.132;2023-05-07T02:32:31;15.20;;;8.30;;
13252;SDS011;6693;54.370;10.132;2023-05-07T02:33:32;13.32;;;5.57;;
13252;SDS011;6693;54.370;10.132;2023-05-07T02:34:36;14.52;;;6.82;;
13252;SDS011;6693;54.370;10.132;2023-05-07T02:35:37;12.55;;;6.00;;
13252;SDS011;6693;54.370;10.132;2023-05-07T02:36:40;12.00;;;5.40;;
13252;SDS011;6693;54.370;10.132;2023-05-07T02:37:40;11.80;;;6.43;;
13252;SDS011;6693;54.370;10.132;2023-05-07T02:38:44;10.40;;;5.43;;
13252;SDS011;6693;54.370;10.132;2023-05-07T02:39:44;12.82;;;7.32;;
13252;SDS011;6693;54.370;10.132;2023-05-07T02:40:50;12.82;;;6.72;;
13252;SDS011;6693;54.370;10.132;2023-05-07T02:41:51;11.05;;;5.50;;
13252;SDS011;6693;54.370;10.132;2023-05-07T02:42:54;11.95;;;6.10;;
13252;SDS011;6693;54.370;10.132;2023-05-07T02:43:55;8.98;;;4.20;;
13252;SDS011;6693;54.370;10.132;2023-05-07T02:44:58;13.20;;;7.13;;
13252;SDS011;6693;54.370;10.132;2023-05-07T02:46:02;13.82;;;6.25;;
13252;SDS011;6693;54.370;10.132;2023-05-07T02:47:06;12.18;;;5.60;;
13252;SDS011;6693;54.370;10.132;2023-05-07T02:48:08;12.32;;;6.82;;
13252;SDS011;6693;54.370;10.132;2023-05-07T02:49:11;11.43;;;5.88;;
13252;SDS011;6693;54.370;10.132;2023-05-07T02:50:12;10.57;;;5.15;;
13252;SDS011;6693;54.370;10.132;2023-05-07T02:51:17;10.93;;;4.95;;
13252;SDS011;6693;54.370;10.132;2023-05-07T02:52:19;8.68;;;4.40;;
13252;SDS011;6693;54.370;10.132;2023-05-07T02:53:22;12.05;;;5.85;;
13252;SDS011;6693;54.370;10.132;2023-05-07T02:54:25;12.05;;;5.55;;
13252;SDS011;6693;54.370;10.132;2023-05-07T02:55:29;11.27;;;5.55;;
13252;SDS011;6693;54.370;10.132;2023-05-07T02:56:33;12.02;;;6.20;;
13252;SDS011;6693;54.370;10.132;2023-05-07T02:57:36;11.65;;;5.75;;
13252;SDS011;6693;54.370;10.132;2023-05-07T02:58:36;12.75;;;6.18;;
13252;SDS011;6693;54.370;10.132;2023-05-07T02:59:41;14.00;;;6.80;;
13252;SDS011;6693;54.370;10.132;2023-05-07T03:00:41;11.98;;;6.35;;
13252;SDS011;6693;54.370;10.132;2023-05-07T03:01:44;12.32;;;6.45;;
13252;SDS011;6693;54.370;10.132;2023-05-07T03:02:45;11.98;;;6.10;;
13252;SDS011;6693;54.370;10.132;2023-05-07T03:03:48;11.38;;;5.55;;
13252;SDS011;6693;54.370;10.132;2023-05-07T03:04:49;13.05;;;6.07;;
13252;SDS011;6693;54.370;10.132;2023-05-07T03:05:52;14.77;;;8.00;;
13252;SDS011;6693;54.370;10.132;2023-05-07T03:06:53;12.25;;;7.22;;
13252;SDS011;6693;54.370;10.132;2023-05-07T03:07:56;13.25;;;6.22;;
13252;SDS011;6693;54.370;10.132;2023-05-07T03:08:57;12.02;;;6.20;;
13252;SDS011;6693;54.370;10.132;2023-05-07T03:10:00;14.38;;;7.00;;
13252;SDS011;6693;54.370;10.132;2023-05-07T03:11:01;13.07;;;5.50;;
13252;SDS011;6693;54.370;10.132;2023-05-07T03:12:06;11.98;;;5.22;;
13252;SDS011;6693;54.370;10.132;2023-05-07T03:13:07;14.15;;;6.75;;
13252;SDS011;6693;54.370;10.132;2023-05-07T03:14:10;11.93;;;5.95;;
13252;SDS011;6693;54.370;10.132;2023-05-07T03:15:11;12.60;;;6.50;;
13252;SDS011;6693;54.370;10.132;2023-05-07T03:16:15;10.98;;;5.80;;
13252;SDS011;6693;54.370;10.132;2023-05-07T03:17:16;9.85;;;4.25;;
13252;SDS011;6693;54.370;10.132;2023-05-07T03:18:19;11.68;;;6.85;;
13252;SDS011;6693;54.370;10.132;2023-05-07T03:19:19;10.77;;;5.15;;
13252;SDS011;6693;54.370;10.132;2023-05-07T03:20:23;12.70;;;6.03;;
13252;SDS011;6693;54.370;10.132;2023-05-07T03:21:23;8.82;;;4.18;;
13252;SDS011;6693;54.370;10.132;2023-05-07T03:22:27;10.57;;;4.78;;
13252;SDS011;6693;54.370;10.132;2023-05-07T03:23:27;10.00;;;4.60;;
13252;SDS011;6693;54.370;10.132;2023-05-07T03:24:30;11.77;;;5.60;;
13252;SDS011;6693;54.370;10.132;2023-05-07T03:25:31;11.02;;;6.10;;
13252;SDS011;6693;54.370;10.132;2023-05-07T03:26:35;13.70;;;7.13;;
13252;SDS011;6693;54.370;10.132;2023-05-07T03:27:38;12.65;;;6.65;;
13252;SDS011;6693;54.370;10.132;2023-05-07T03:28:41;12.20;;;7.32;;
13252;SDS011;6693;54.370;10.132;2023-05-07T03:29:42;10.45;;;5.63;;
13252;SDS011;6693;54.370;10.132;2023-05-07T03:30:45;11.63;;;6.03;;
13252;SDS011;6693;54.370;10.132;2023-05-07T03:31:46;11.63;;;7.00;;
13252;SDS011;6693;54.370;10.132;2023-05-07T03:32:49;13.05;;;6.88;;
13252;SDS011;6693;54.370;10.132;2023-05-07T03:33:50;15.38;;;7.97;;
13252;SDS011;6693;54.370;10.132;2023-05-07T03:34:54;12.45;;;5.82;;
13252;SDS011;6693;54.370;10.132;2023-05-07T03:35:55;12.93;;;7.22;;
13252;SDS011;6693;54.370;10.132;2023-05-07T03:36:58;11.82;;;6.22;;
13252;SDS011;6693;54.370;10.132;2023-05-07T03:38:02;10.57;;;5.45;;
13252;SDS011;6693;54.370;10.132;2023-05-07T03:39:03;13.00;;;6.00;;
13252;SDS011;6693;54.370;10.132;2023-05-07T03:40:07;11.48;;;6.90;;
13252;SDS011;6693;54.370;10.132;2023-05-07T03:41:10;16.20;;;6.05;;
13252;SDS011;6693;54.370;10.132;2023-05-07T03:42:13;12.20;;;6.18;;
13252;SDS011;6693;54.370;10.132;2023-05-07T03:43:17;13.70;;;6.75;;
13252;SDS011;6693;54.370;10.132;2023-05-07T03:44:20;13.20;;;6.85;;
13252;SDS011;6693;54.370;10.132;2023-05-07T03:45:21;11.60;;;6.53;;
13252;SDS011;6693;54.370;10.132;2023-05-07T03:46:24;12.07;;;5.63;;
13252;SDS011;6693;54.370;10.132;2023-05-07T03:47:26;11.73;;;5.78;;
13252;SDS011;6693;54.370;10.132;2023-05-07T03:48:29;13.32;;;6.63;;
13252;SDS011;6693;54.370;10.132;2023-05-07T03:49:29;10.82;;;5.75;;
13252;SDS011;6693;54.370;10.132;2023-05-07T03:50:33;12.05;;;6.13;;
13252;SDS011;6693;54.370;10.132;2023-05-07T03:51:33;10.57;;;5.43;;
13252;SDS011;6693;54.370;10.132;2023-05-07T03:52:36;12.30;;;6.35;;
13252;SDS011;6693;54.370;10.132;2023-05-07T03:53:37;12.38;;;5.70;;
13252;SDS011;6693;54.370;10.132;2023-05-07T03:54:40;13.15;;;6.22;;
13252;SDS011;6693;54.370;10.132;2023-05-07T03:55:41;11.80;;;6.57;;
13252;SDS011;6693;54.370;10.132;2023-05-07T03:56:44;12.40;;;7.03;;
13252;SDS011;6693;54.370;10.132;2023-05-07T03:57:45;9.98;;;4.47;;
13252;SDS011;6693;54.370;10.132;2023-05-07T03:58:51;12.65;;;6.95;;
13252;SDS011;6693;54.370;10.132;2023-05-07T03:59:51;11.20;;;5.75;;
13252;SDS011;6693;54.370;10.132;2023-05-07T04:00:54;11.68;;;7.15;;
13252;SDS011;6693;54.370;10.132;2023-05-07T04:01:55;12.38;;;6.32;;
13252;SDS011;6693;54.370;10.132;2023-05-07T04:02:58;11.30;;;6.22;;
13252;SDS011;6693;54.370;10.132;2023-05-07T04:03:59;10.07;;;5.63;;
13252;SDS011;6693;54.370;10.132;2023-05-07T04:05:03;12.35;;;5.82;;
13252;SDS011;6693;54.370;10.132;2023-05-07T04:06:04;11.90;;;7.07;;
13252;SDS011;6693;54.370;10.132;2023-05-07T04:07:07;12.02;;;7.30;;
13252;SDS011;6693;54.370;10.132;2023-05-07T04:08:08;9.85;;;5.32;;
13252;SDS011;6693;54.370;10.132;2023-05-07T04:09:11;9.95;;;5.00;;
13252;SDS011;6693;54.370;10.132;2023-05-07T04:10:12;11.25;;;6.38;;
13252;SDS011;6693;54.370;10.132;2023-05-07T04:11:23;11.55;;;7.10;;
13252;SDS011;6693;54.370;10.132;2023-05-07T04:12:26;11.45;;;6.57;;
13252;SDS011;6693;54.370;10.132;2023-05-07T04:13:29;12.27;;;6.20;;
13252;SDS011;6693;54.370;10.132;2023-05-07T04:14:33;11.73;;;6.80;;
13252;SDS011;6693;54.370;10.132;2023-05-07T04:15:36;11.93;;;6.90;;
13252;SDS011;6693;54.370;10.132;2023-05-07T04:16:37;10.50;;;5.53;;
13252;SDS011;6693;54.370;10.132;2023-05-07T04:17:40;12.18;;;6.85;;
13252;SDS011;6693;54.370;10.132;2023-05-07T04:18:41;10.07;;;4.95;;
13252;SDS011;6693;54.370;10.132;2023-05-07T04:19:44;13.13;;;5.95;;
13252;SDS011;6693;54.370;10.132;2023-05-07T04:20:45;11.27;;;6.30;;
13252;SDS011;6693;54.370;10.132;2023-05-07T04:21:49;10.70;;;6.60;;
13252;SDS011;6693;54.370;10.132;2023-05-07T04:22:49;11.52;;;5.63;;
13252;SDS011;6693;54.370;10.132;2023-05-07T04:23:53;12.23;;;6.70;;
13252;SDS011;6693;54.370;10.132;2023-05-07T04:24:53;12.27;;;6.00;;
13252;SDS011;6693;54.370;10.132;2023-05-07T04:25:57;11.23;;;5.88;;
13252;SDS011;6693;54.370;10.132;2023-05-07T04:35:50;9.32;;;4.82;;
13252;SDS011;6693;54.370;10.132;2023-05-07T04:36:51;10.38;;;5.80;;
13252;SDS011;6693;54.370;10.132;2023-05-07T04:37:54;11.73;;;6.32;;
13252;SDS011;6693;54.370;10.132;2023-05-07T04:38:55;13.23;;;6.07;;
13252;SDS011;6693;54.370;10.132;2023-05-07T04:39:58;13.38;;;6.95;;
13252;SDS011;6693;54.370;10.132;2023-05-07T04:41:02;10.82;;;5.63;;
13252;SDS011;6693;54.370;10.132;2023-05-07T04:42:06;11.75;;;5.85;;
13252;SDS011;6693;54.370;10.132;2023-05-07T04:43:08;10.43;;;4.78;;
13252;SDS011;6693;54.370;10.132;2023-05-07T04:44:12;11.98;;;6.97;;
13252;SDS011;6693;54.370;10.132;2023-05-07T04:45:12;12.82;;;7.28;;
13252;SDS011;6693;54.370;10.132;2023-05-07T04:46:15;11.20;;;6.07;;
13252;SDS011;6693;54.370;10.132;2023-05-07T04:47:16;12.82;;;7.18;;
13252;SDS011;6693;54.370;10.132;2023-05-07T04:48:19;13.73;;;6.75;;
13252;SDS011;6693;54.370;10.132;2023-05-07T04:49:20;12.57;;;6.63;;
13252;SDS011;6693;54.370;10.132;2023-05-07T04:50:23;12.27;;;6.05;;
13252;SDS011;6693;54.370;10.132;2023-05-07T04:51:27;12.63;;;6.28;;
13252;SDS011;6693;54.370;10.132;2023-05-07T04:52:32;13.50;;;6.90;;
13252;SDS011;6693;54.370;10.132;2023-05-07T04:53:33;11.27;;;5.70;;
13252;SDS011;6693;54.370;10.132;2023-05-07T04:54:36;12.50;;;6.07;;
13252;SDS011;6693;54.370;10.132;2023-05-07T04:55:37;12.43;;;6.57;;
13252;SDS011;6693;54.370;10.132;2023-05-07T04:56:40;13.40;;;7.53;;
13252;SDS011;6693;54.370;10.132;2023-05-07T04:57:41;11.82;;;6.45;;
13252;SDS011;6693;54.370;10.132;2023-05-07T04:58:45;12.18;;;5.90;;
13252;SDS011;6693;54.370;10.132;2023-05-07T04:59:46;12.90;;;6.32;;
13252;SDS011;6693;54.370;10.132;2023-05-07T05:00:49;12.35;;;6.25;;
13252;SDS011;6693;54.370;10.132;2023-05-07T05:01:49;11.30;;;6.20;;
13252;SDS011;6693;54.370;10.132;2023-05-07T05:02:53;10.85;;;5.75;;
13252;SDS011;6693;54.370;10.132;2023-05-07T05:03:53;9.75;;;4.50;;
13252;SDS011;6693;54.370;10.132;2023-05-07T05:04:57;10.57;;;4.07;;
13252;SDS011;6693;54.370;10.132;2023-05-07T05:05:59;12.50;;;5.78;;
13252;SDS011;6693;54.370;10.132;2023-05-07T05:07:05;10.13;;;4.68;;
13252;SDS011;6693;54.370;10.132;2023-05-07T05:08:05;11.07;;;6.25;;
13252;SDS011;6693;54.370;10.132;2023-05-07T05:09:09;10.38;;;5.75;;
13252;SDS011;6693;54.370;10.132;2023-05-07T05:10:09;10.88;;;6.20;;
13252;SDS011;6693;54.370;10.132;2023-05-07T05:11:13;13.35;;;6.13;;
13252;SDS011;6693;54.370;10.132;2023-05-07T05:12:13;12.32;;;6.75;;
13252;SDS011;6693;54.370;10.132;2023-05-07T05:13:16;11.18;;;6.25;;
13252;SDS011;6693;54.370;10.132;2023-05-07T05:14:17;13.90;;;7.30;;
13252;SDS011;6693;54.370;10.132;2023-05-07T05:15:20;12.07;;;6.45;;
13252;SDS011;6693;54.370;10.132;2023-05-07T05:16:21;12.75;;;6.03;;
13252;SDS011;6693;54.370;10.132;2023-05-07T05:17:25;11.63;;;6.80;;
13252;SDS011;6693;54.370;10.132;2023-05-07T05:18:25;11.45;;;6.22;;
13252;SDS011;6693;54.370;10.132;2023-05-07T05:19:28;10.38;;;5.13;;
13252;SDS011;6693;54.370;10.132;2023-05-07T05:20:29;11.93;;;5.93;;
13252;SDS011;6693;54.370;10.132;2023-05-07T05:21:32;13.13;;;6.30;;
13252;SDS011;6693;54.370;10.132;2023-05-07T05:22:35;11.85;;;6.68;;
13252;SDS011;6693;54.370;10.132;2023-05-07T05:23:39;12.18;;;6.40;;
13252;SDS011;6693;54.370;10.132;2023-05-07T05:24:39;12.20;;;6.20;;
13252;SDS011;6693;54.370;10.132;2023-05-07T05:25:43;11.93;;;4.93;;
13252;SDS011;6693;54.370;10.132;2023-05-07T05:26:43;10.65;;;5.32;;
13252;SDS011;6693;54.370;10.132;2023-05-07T05:27:46;11.35;;;6.85;;
13252;SDS011;6693;54.370;10.132;2023-05-07T05:28:47;10.10;;;5.85;;
13252;SDS011;6693;54.370;10.132;2023-05-07T05:29:50;11.68;;;6.45;;
13252;SDS011;6693;54.370;10.132;2023-05-07T05:30:51;12.88;;;5.40;;
13252;SDS011;6693;54.370;10.132;2023-05-07T05:31:54;13.15;;;6.57;;
13252;SDS011;6693;54.370;10.132;2023-05-07T05:32:55;11.40;;;5.60;;
13252;SDS011;6693;54.370;10.132;2023-05-07T05:33:59;11.05;;;5.45;;
13252;SDS011;6693;54.370;10.132;2023-05-07T05:35:00;13.82;;;6.70;;
13252;SDS011;6693;54.370;10.132;2023-05-07T05:36:03;13.20;;;6.88;;
13252;SDS011;6693;54.370;10.132;2023-05-07T05:37:11;13.02;;;6.63;;
13252;SDS011;6693;54.370;10.132;2023-05-07T05:38:20;12.05;;;6.30;;
13252;SDS011;6693;54.370;10.132;2023-05-07T05:39:28;11.60;;;5.68;;
13252;SDS011;6693;54.370;10.132;2023-05-07T05:40:37;11.90;;;5.85;;
13252;SDS011;6693;54.370;10.132;2023-05-07T05:41:44;10.48;;;5.22;;
13252;SDS011;6693;54.370;10.132;2023-05-07T05:42:51;11.63;;;6.13;;
13252;SDS011;6693;54.370;10.132;2023-05-07T05:43:58;11.02;;;5.25;;
13252;SDS011;6693;54.370;10.132;2023-05-07T05:45:01;11.02;;;6.20;;
13252;SDS011;6693;54.370;10.132;2023-05-07T05:46:02;10.65;;;4.80;;
13252;SDS011;6693;54.370;10.132;2023-05-07T05:47:05;11.80;;;5.40;;
13252;SDS011;6693;54.370;10.132;2023-05-07T05:48:05;11.18;;;5.50;;
13252;SDS011;6693;54.370;10.132;2023-05-07T05:49:09;11.27;;;5.55;;
13252;SDS011;6693;54.370;10.132;2023-05-07T05:50:09;12.27;;;6.82;;
13252;SDS011;6693;54.370;10.132;2023-05-07T05:51:12;13.00;;;5.60;;
13252;SDS011;6693;54.370;10.132;2023-05-07T05:52:13;11.93;;;4.75;;
13252;SDS011;6693;54.370;10.132;2023-05-07T05:53:17;9.55;;;4.45;;
13252;SDS011;6693;54.370;10.132;2023-05-07T05:54:21;11.15;;;6.40;;
13252;SDS011;6693;54.370;10.132;2023-05-07T05:55:24;11.82;;;5.78;;
13252;SDS011;6693;54.370;10.132;2023-05-07T05:56:24;11.07;;;5.70;;
13252;SDS011;6693;54.370;10.132;2023-05-07T05:57:28;9.23;;;4.72;;
13252;SDS011;6693;54.370;10.132;2023-05-07T05:58:29;9.70;;;4.10;;
13252;SDS011;6693;54.370;10.132;2023-05-07T05:59:32;13.45;;;6.18;;
13252;SDS011;6693;54.370;10.132;2023-05-07T06:00:33;11.85;;;5.30;;
13252;SDS011;6693;54.370;10.132;2023-05-07T06:01:36;10.70;;;4.68;;
13252;SDS011;6693;54.370;10.132;2023-05-07T06:02:37;10.65;;;4.88;;
13252;SDS011;6693;54.370;10.132;2023-05-07T06:03:40;12.27;;;5.82;;
13252;SDS011;6693;54.370;10.132;2023-05-07T06:04:40;10.93;;;5.68;;
13252;SDS011;6693;54.370;10.132;2023-05-07T06:05:44;10.30;;;5.03;;
13252;SDS011;6693;54.370;10.132;2023-05-07T06:06:45;10.98;;;5.63;;
13252;SDS011;6693;54.370;10.132;2023-05-07T06:07:48;10.80;;;5.25;;
13252;SDS011;6693;54.370;10.132;2023-05-07T06:08:51;10.20;;;5.30;;
13252;SDS011;6693;54.370;10.132;2023-05-07T06:09:54;9.88;;;4.47;;
13252;SDS011;6693;54.370;10.132;2023-05-07T06:10:55;9.88;;;4.80;;
13252;SDS011;6693;54.370;10.132;2023-05-07T06:11:58;10.60;;;4.75;;
13252;SDS011;6693;54.370;10.132;2023-05-07T06:12:59;9.80;;;5.47;;
13252;SDS011;6693;54.370;10.132;2023-05-07T06:14:02;8.43;;;4.13;;
13252;SDS011;6693;54.370;10.132;2023-05-07T06:15:03;8.93;;;4.60;;
13252;SDS011;6693;54.370;10.132;2023-05-07T06:16:07;10.25;;;5.40;;
13252;SDS011;6693;54.370;10.132;2023-05-07T06:17:08;10.25;;;5.32;;
13252;SDS011;6693;54.370;10.132;2023-05-07T06:18:11;11.43;;;5.72;;
13252;SDS011;6693;54.370;10.132;2023-05-07T06:19:11;10.05;;;4.88;;
13252;SDS011;6693;54.370;10.132;2023-05-07T06:20:15;11.13;;;5.93;;
13252;SDS011;6693;54.370;10.132;2023-05-07T06:21:18;11.57;;;5.07;;